KDTL/DTL METAR and TAF weather

Enter ICAO airport designator
Station Type Date Time Source
KDTL METAR 2019/05/25 09:55 UTC NOAA

KDTL 250955Z AUTO 27009KT 10SM BKN011 11/08 A2969 RMK AO2


Station Type Date Time Source
KDTL Decoded METAR 2019/05/25 09:55 UTC NOAA

Detroit Lakes, Detroit Lakes Airport-Wething Field, MN, United States (KDTL) 46-50N 095-53W
May 25, 2019 - 05:55 AM EDT / 2019.05.25 0955 UTC
Wind: from the W (270 degrees) at 10 MPH (9 KT):0
Visibility: 10 mile(s):0
Sky conditions: mostly cloudy
Temperature: 51 F (11 C)
Dew Point: 46 F (8 C)
Relative Humidity: 81%
Pressure (altimeter): 29.69 in. Hg (1005 hPa)
ob: KDTL 250955Z AUTO 27009KT 10SM BKN011 11/08 A2969 RMK AO2
cycle: 10

Station Type Date Time Source
KDTL TAF UTC NOAA

Error!

Example: see airport list